createdAt,value
2018-07-11T08:30:03.340Z,59.16
2018-07-11T08:31:03.012Z,71.15
2018-07-11T08:32:03.211Z,65.97
2018-07-11T08:33:03.449Z,71.05
2018-07-11T08:34:03.633Z,72.59
2018-07-11T08:35:03.867Z,74.51
2018-07-11T08:36:03.986Z,71.82
2018-07-11T08:37:04.160Z,68.85
2018-07-11T08:38:04.364Z,73.16
2018-07-11T08:39:04.595Z,74.41
2018-07-11T08:40:04.715Z,74.16
2018-07-11T08:41:04.908Z,70.03
2018-07-11T08:42:05.089Z,80.58
2018-07-11T08:43:05.267Z,84.14
2018-07-11T08:44:05.460Z,82.98
2018-07-11T08:45:05.630Z,86.92
2018-07-11T08:46:05.812Z,84.81
2018-07-11T08:47:06.029Z,83.27
2018-07-11T08:48:06.260Z,87.59
2018-07-11T08:49:06.392Z,85.96
2018-07-11T08:50:06.576Z,87.78
2018-07-11T08:51:06.765Z,84.47
2018-07-11T08:52:06.939Z,89.55
2018-07-11T08:53:07.120Z,89.36
2018-07-11T08:54:07.305Z,89.75
2018-07-11T08:55:07.520Z,91.38
2018-07-11T08:56:07.680Z,89.51
2018-07-11T08:57:07.852Z,85.38
2018-07-11T08:58:08.033Z,83.12
2018-07-11T08:59:08.227Z,88.31
2018-07-11T09:00:08.415Z,89.94
2018-07-11T09:01:09.275Z,91.90
2018-07-11T09:02:08.836Z,96.32
2018-07-11T09:03:09.016Z,94.59
2018-07-11T09:04:09.218Z,92.77
2018-07-11T09:05:09.406Z,97.81
2018-07-11T09:06:09.589Z,96.66
2018-07-11T09:07:09.762Z,94.64
2018-07-11T09:08:09.941Z,97.28
2018-07-11T09:09:10.126Z,96.89
2018-07-11T09:10:10.308Z,97.09
2018-07-11T09:11:10.488Z,97.76
2018-07-11T09:12:10.673Z,97.38
2018-07-11T09:13:10.868Z,96.13
2018-07-11T09:14:11.043Z,94.79
2018-07-11T09:15:11.221Z,97.95
2018-07-11T09:16:11.403Z,99.49
2018-07-11T09:17:11.597Z,97.28
2018-07-11T09:18:11.800Z,96.51
2018-07-11T09:19:11.972Z,98.33
2018-07-11T09:20:12.146Z,97.61
2018-07-11T09:21:12.328Z,97.24
2018-07-11T09:22:12.540Z,93.54
2018-07-11T09:23:12.707Z,99.58
2018-07-11T09:24:12.931Z,99.20
2018-07-11T09:25:13.130Z,99.99
2018-07-11T09:26:13.339Z,99.49
2018-07-11T09:27:13.518Z,99.99
2018-07-11T09:28:13.699Z,99.99
2018-07-11T09:29:13.882Z,99.99
2018-07-11T09:30:14.060Z,99.99
2018-07-11T09:31:14.263Z,99.99
2018-07-11T09:32:14.456Z,99.99
2018-07-11T09:33:14.635Z,99.99
2018-07-11T09:34:14.824Z,99.77
2018-07-11T09:35:15.016Z,99.99
2018-07-11T09:36:15.200Z,99.58
2018-07-11T09:37:15.384Z,99.99
2018-07-11T09:38:15.556Z,99.99
2018-07-11T09:39:15.743Z,99.49
2018-07-11T09:40:15.930Z,99.99
2018-07-11T09:41:16.110Z,99.68
2018-07-11T09:43:59.485Z,99.10
2018-07-11T09:44:59.685Z,99.49
2018-07-11T09:45:59.863Z,99.77
2018-07-11T09:47:00.049Z,97.66
2018-07-11T09:48:00.234Z,97.56
2018-07-11T09:49:00.410Z,99.99
2018-07-11T09:50:00.651Z,99.99
2018-07-11T09:51:00.856Z,99.96
2018-07-11T09:52:01.041Z,99.99
2018-07-11T09:53:01.243Z,99.99
2018-07-11T09:54:01.419Z,99.99
2018-07-11T09:55:01.621Z,99.10
2018-07-11T09:56:01.835Z,99.99
2018-07-11T09:57:02.024Z,99.99
2018-07-11T09:58:02.213Z,99.99
2018-07-11T09:59:02.395Z,99.99
2018-07-11T10:00:02.623Z,99.99
2018-07-11T10:01:02.752Z,99.99
2018-07-11T10:02:02.954Z,99.99
2018-07-11T10:03:03.150Z,99.99
2018-07-11T10:05:46.060Z,99.99
2018-07-11T10:06:46.230Z,99.99
2018-07-11T10:08:46.578Z,99.99
2018-07-11T10:09:46.757Z,99.99
2018-07-11T10:10:46.965Z,99.99
2018-07-11T10:11:47.142Z,99.99
2018-07-11T10:12:47.326Z,99.99
2018-07-11T10:13:47.510Z,99.99
2018-07-11T10:14:47.684Z,99.99
2018-07-11T10:15:47.863Z,99.99
2018-07-11T10:16:48.032Z,99.99
2018-07-11T10:17:48.222Z,99.99
2018-07-11T10:18:48.404Z,99.99
2018-07-11T10:19:48.616Z,99.99
2018-07-11T10:20:48.765Z,99.99
2018-07-11T10:21:48.930Z,99.99
2018-07-11T10:22:49.106Z,99.99
2018-07-11T10:23:49.288Z,99.99
2018-07-11T10:24:49.475Z,99.99
2018-07-11T10:25:49.640Z,99.99
2018-07-11T10:26:49.842Z,99.99
2018-07-11T10:27:50.036Z,99.99
2018-07-11T10:28:50.236Z,99.99
2018-07-11T10:29:50.424Z,99.99
2018-07-11T10:30:50.607Z,99.99
2018-07-11T10:31:50.811Z,99.99
2018-07-11T10:32:50.998Z,99.99
2018-07-11T10:33:51.182Z,99.99
2018-07-11T10:34:51.364Z,99.99
2018-07-11T10:35:51.548Z,99.99
2018-07-11T10:36:51.741Z,99.99
2018-07-11T10:37:51.916Z,99.99
2018-07-11T10:38:52.115Z,99.99
2018-07-11T10:39:52.269Z,99.99
2018-07-11T10:40:52.463Z,99.99
2018-07-11T10:41:52.637Z,99.99
2018-07-11T10:42:52.828Z,99.99
2018-07-11T10:43:53.027Z,99.99
2018-07-11T10:44:53.247Z,99.99
2018-07-11T10:45:53.410Z,99.35
2018-07-11T10:46:53.600Z,99.01
2018-07-11T10:47:53.791Z,99.99
2018-07-11T10:48:53.975Z,99.88
2018-07-11T10:49:54.186Z,99.99
2018-07-11T10:50:54.346Z,99.44
2018-07-11T10:51:54.536Z,99.99
2018-07-11T10:52:54.716Z,99.99
2018-07-11T10:53:54.903Z,99.99
2018-07-11T10:54:55.092Z,99.99
2018-07-11T10:55:55.273Z,99.99
2018-07-11T10:56:55.452Z,99.99
2018-07-11T10:57:55.697Z,99.99
2018-07-11T10:58:55.853Z,99.99
2018-07-11T10:59:56.038Z,99.99
2018-07-11T11:01:05.702Z,99.99
2018-07-11T11:01:56.414Z,99.99
2018-07-11T11:02:56.600Z,99.99
2018-07-11T11:03:56.806Z,99.99
2018-07-11T11:04:57.523Z,99.99
2018-07-11T11:05:57.178Z,99.99
2018-07-11T11:06:57.368Z,99.99
2018-07-11T11:07:57.590Z,99.99
2018-07-11T11:08:57.750Z,99.99
2018-07-11T11:09:58.033Z,99.99
2018-07-11T11:10:58.108Z,99.99
2018-07-11T11:11:58.318Z,99.99
2018-07-11T11:12:58.508Z,99.99
2018-07-11T11:13:58.681Z,99.99
2018-07-11T11:14:58.883Z,99.99
2018-07-11T11:15:59.071Z,99.99
2018-07-11T11:16:59.249Z,99.99
2018-07-11T11:17:59.456Z,99.99
2018-07-11T11:18:59.648Z,99.99
2018-07-11T11:19:59.847Z,99.99
2018-07-11T11:21:00.035Z,98.97
2018-07-11T11:22:00.213Z,98.87
2018-07-11T11:23:00.403Z,95.31
2018-07-11T11:24:00.575Z,93.71
2018-07-11T11:25:00.773Z,91.78
2018-07-11T11:26:00.948Z,91.45
2018-07-11T11:27:01.137Z,93.19
2018-07-11T11:28:01.325Z,93.62
2018-07-11T11:29:01.566Z,93.81
2018-07-11T11:30:01.746Z,96.22
2018-07-11T11:31:01.924Z,96.22
2018-07-11T11:32:02.206Z,95.98
2018-07-11T11:33:02.311Z,97.52
2018-07-11T11:34:02.501Z,97.76
2018-07-11T11:35:02.677Z,97.67
2018-07-11T11:36:02.865Z,98.54
2018-07-11T11:37:03.070Z,98.24
2018-07-11T11:38:03.220Z,96.89
2018-07-11T11:39:03.414Z,98.24
2018-07-11T11:40:03.592Z,98.87
2018-07-11T11:41:03.780Z,97.96
2018-07-11T11:42:04.113Z,98.68
2018-07-11T11:43:04.165Z,98.19
2018-07-11T11:44:04.366Z,99.06
2018-07-11T11:45:04.557Z,96.99
2018-07-11T11:46:04.736Z,95.84
2018-07-11T11:47:04.912Z,95.84
2018-07-11T11:48:05.096Z,94.44
2018-07-11T11:49:05.282Z,91.46
2018-07-11T11:50:05.460Z,93.87
2018-07-11T11:51:05.669Z,94.92
2018-07-11T11:52:05.866Z,92.32
2018-07-11T11:53:06.051Z,91.27
2018-07-11T11:54:06.236Z,92.22
2018-07-11T11:55:06.431Z,94.10
2018-07-11T11:56:06.626Z,91.99
2018-07-11T11:57:06.811Z,90.78
2018-07-11T11:58:06.992Z,92.90
2018-07-11T11:59:07.184Z,94.78
2018-07-11T12:00:07.391Z,96.22
2018-07-11T12:01:07.553Z,96.47
2018-07-11T12:02:07.743Z,96.66
2018-07-11T12:03:07.943Z,96.47
2018-07-11T12:04:08.115Z,97.04
2018-07-11T12:05:08.315Z,96.75
2018-07-11T12:06:08.502Z,96.56
2018-07-11T12:07:08.698Z,96.85
2018-07-11T12:08:08.872Z,97.71
2018-07-11T12:09:09.064Z,97.81
2018-07-11T12:10:09.242Z,95.89
2018-07-11T12:11:09.430Z,94.45
2018-07-11T12:12:09.618Z,95.40
2018-07-11T12:13:09.812Z,95.40
2018-07-11T12:14:10.004Z,95.74
2018-07-11T12:15:10.214Z,95.36
2018-07-11T12:16:10.442Z,94.40
2018-07-11T12:17:10.632Z,95.17
2018-07-11T12:18:10.819Z,95.55
2018-07-11T12:19:11.008Z,94.25
2018-07-11T12:20:11.218Z,95.79
2018-07-11T12:21:11.452Z,94.73
2018-07-11T12:22:11.587Z,95.69
2018-07-11T12:23:11.777Z,95.21
2018-07-11T12:24:11.960Z,94.34
2018-07-11T12:25:12.131Z,94.40
2018-07-11T12:26:12.313Z,93.57
2018-07-11T12:27:12.500Z,92.80
2018-07-11T12:28:12.682Z,92.13
2018-07-11T12:29:12.896Z,91.84
2018-07-11T12:30:13.076Z,92.56
2018-07-11T12:31:13.263Z,91.12
2018-07-11T12:32:13.450Z,88.27
2018-07-11T12:33:13.631Z,88.65
2018-07-11T12:34:13.813Z,88.22
2018-07-11T12:35:14.018Z,86.54
2018-07-11T12:36:14.209Z,85.57
2018-07-11T12:37:14.395Z,85.72
2018-07-11T12:38:14.605Z,86.69
2018-07-11T12:39:14.795Z,86.35
2018-07-11T12:40:14.979Z,87.51
2018-07-11T12:41:15.166Z,87.80
2018-07-11T12:42:15.361Z,87.80
2018-07-11T12:43:15.543Z,87.70
2018-07-11T12:44:15.732Z,87.90
2018-07-11T12:45:15.924Z,87.60
2018-07-11T12:46:16.124Z,88.09
2018-07-11T12:47:16.325Z,84.91
2018-07-11T12:48:16.550Z,85.39
2018-07-11T12:49:16.754Z,85.78
2018-07-11T12:50:16.943Z,85.10
2018-07-11T12:51:17.124Z,83.66
2018-07-11T12:52:17.310Z,82.31
2018-07-11T12:53:17.485Z,82.93
2018-07-11T12:54:17.684Z,83.70
2018-07-11T12:55:17.872Z,81.62
2018-07-11T12:56:18.062Z,78.31
2018-07-11T12:57:18.254Z,78.21
2018-07-11T12:58:18.448Z,78.21
2018-07-11T12:59:18.634Z,78.25
2018-07-11T13:00:18.849Z,78.25
2018-07-11T13:01:19.052Z,77.28
2018-07-11T13:02:19.236Z,77.34
2018-07-11T13:03:19.413Z,78.02
2018-07-11T13:04:19.597Z,78.34
2018-07-11T13:05:19.769Z,78.25
2018-07-11T13:06:19.952Z,79.11
2018-07-11T13:07:20.164Z,77.19
2018-07-11T13:08:21.516Z,77.09
2018-07-11T13:09:20.518Z,78.19
2018-07-11T13:10:20.709Z,77.51
2018-07-11T13:11:20.884Z,79.35
2018-07-11T13:12:21.110Z,80.26
2018-07-11T13:13:21.307Z,79.49
2018-07-11T13:14:21.487Z,79.16
2018-07-11T13:15:21.667Z,80.12
2018-07-11T13:16:22.016Z,79.10
2018-07-11T13:17:22.057Z,80.93
2018-07-11T13:18:22.253Z,81.02
2018-07-11T13:19:22.431Z,79.39
2018-07-11T13:20:22.640Z,79.19
2018-07-11T13:21:22.831Z,78.96
2018-07-11T13:22:23.035Z,80.12
2018-07-11T13:23:23.259Z,80.85
2018-07-11T13:24:23.470Z,82.59
2018-07-11T13:25:23.689Z,83.36
2018-07-11T13:26:23.867Z,83.55
2018-07-11T13:27:24.046Z,83.36
2018-07-11T13:28:24.230Z,85.09
2018-07-11T13:29:24.413Z,85.09
2018-07-11T13:30:24.596Z,84.90
2018-07-11T13:31:24.790Z,86.11
2018-07-11T13:32:24.985Z,85.91
2018-07-11T13:33:25.167Z,87.36
2018-07-11T13:34:25.360Z,86.49
2018-07-11T13:35:25.536Z,86.01
2018-07-11T13:36:25.744Z,86.49
2018-07-11T13:37:25.917Z,87.17
2018-07-11T13:38:26.096Z,86.25
2018-07-11T13:39:26.291Z,83.36
2018-07-11T13:40:26.470Z,82.39
2018-07-11T13:41:26.660Z,83.26
2018-07-11T13:42:26.857Z,82.49
2018-07-11T13:43:27.047Z,81.85
2018-07-11T13:44:27.234Z,80.89
2018-07-11T13:45:27.426Z,81.18
2018-07-11T13:46:27.679Z,78.58
2018-07-11T13:47:27.799Z,78.29
2018-07-11T13:48:27.996Z,78.44
2018-07-11T13:49:28.184Z,79.27
2018-07-11T13:50:28.388Z,80.14
2018-07-11T13:51:28.555Z,81.48
2018-07-11T13:52:28.750Z,81.20
2018-07-11T13:53:28.939Z,81.87
2018-07-11T13:54:29.124Z,81.68
2018-07-11T13:55:29.317Z,82.35
2018-07-11T13:56:29.552Z,83.95
2018-07-11T13:57:29.736Z,85.30
2018-07-11T13:58:29.924Z,88.24
2018-07-11T13:59:30.103Z,89.58
2018-07-11T14:00:30.300Z,91.08
2018-07-11T14:01:30.491Z,91.99
2018-07-11T14:02:30.730Z,93.34
2018-07-11T14:03:30.922Z,93.44
2018-07-11T14:04:31.109Z,93.73
2018-07-11T14:05:31.298Z,94.01
2018-07-11T14:06:31.481Z,94.78
2018-07-11T14:07:31.757Z,94.88
2018-07-11T14:08:31.849Z,94.21
2018-07-11T14:09:32.053Z,95.07
2018-07-11T14:10:32.228Z,95.84
2018-07-11T14:11:32.416Z,95.65
2018-07-11T14:12:32.606Z,95.84
2018-07-11T14:13:32.841Z,96.51
2018-07-11T14:14:32.962Z,96.42
2018-07-11T14:15:33.146Z,97.28
2018-07-11T14:16:33.324Z,97.38
2018-07-11T14:17:33.516Z,97.19
2018-07-11T14:18:33.709Z,96.42
2018-07-11T14:19:33.891Z,96.80
2018-07-11T14:20:34.072Z,97.47
2018-07-11T14:21:34.248Z,97.38
2018-07-11T14:22:35.039Z,97.38
2018-07-11T14:23:34.584Z,97.09
2018-07-11T14:24:34.774Z,96.90
2018-07-11T14:25:34.947Z,96.80
2018-07-11T14:26:36.089Z,97.57
2018-07-11T14:27:35.367Z,98.34
2018-07-11T14:28:35.501Z,97.38
2018-07-11T14:29:35.696Z,96.99
2018-07-11T14:30:35.880Z,96.94
2018-07-11T14:31:36.060Z,97.67
2018-07-11T14:32:36.239Z,98.14
2018-07-11T14:33:36.468Z,96.90
2018-07-11T14:34:36.652Z,97.57
2018-07-11T14:35:36.836Z,96.42
2018-07-11T14:36:37.024Z,96.61
2018-07-11T14:37:37.209Z,96.61
2018-07-11T14:38:37.400Z,94.68
2018-07-11T14:39:37.588Z,92.67
2018-07-11T14:40:37.764Z,92.57
2018-07-11T14:41:37.983Z,92.96
2018-07-11T14:42:38.175Z,94.21
2018-07-11T14:43:38.340Z,94.54
2018-07-11T14:44:38.526Z,95.21
2018-07-11T14:45:38.754Z,94.35
2018-07-11T14:46:38.885Z,94.25
2018-07-11T14:47:39.093Z,93.96
2018-07-11T14:48:39.285Z,92.91
2018-07-11T14:49:41.085Z,92.33
2018-07-11T14:50:39.689Z,92.61
2018-07-11T14:51:40.014Z,93.19
2018-07-11T14:52:40.069Z,92.91
2018-07-11T14:53:40.252Z,92.43
2018-07-11T14:54:40.427Z,91.46
2018-07-11T14:55:41.569Z,92.57
2018-07-11T14:56:40.816Z,93.62
2018-07-11T14:57:41.002Z,91.60
2018-07-11T14:58:41.201Z,89.87
2018-07-11T14:59:41.400Z,89.01
2018-07-11T15:00:41.593Z,89.44
2018-07-11T15:01:41.763Z,90.31
2018-07-11T15:02:44.088Z,89.73
2018-07-11T15:03:42.191Z,89.49
2018-07-11T15:04:42.376Z,88.29
2018-07-11T15:05:42.554Z,87.71
2018-07-11T15:06:42.739Z,88.10
2018-07-11T15:07:43.551Z,87.90
2018-07-11T15:08:43.301Z,88.00
2018-07-11T15:09:45.549Z,88.57
2018-07-11T15:10:43.437Z,89.06
2018-07-11T15:11:43.624Z,89.25
2018-07-11T15:12:43.777Z,89.73
2018-07-11T15:13:43.947Z,90.50
2018-07-11T15:16:33.341Z,91.22
2018-07-11T15:17:31.259Z,91.90
2018-07-11T15:18:29.759Z,92.09
2018-07-11T15:19:28.980Z,92.96
2018-07-11T15:20:29.051Z,94.88
2018-07-11T15:21:29.379Z,94.88
2018-07-11T15:22:29.571Z,95.40
2018-07-11T15:23:44.334Z,95.79
2018-07-11T15:24:29.877Z,95.50
2018-07-11T15:25:30.060Z,95.98
2018-07-11T15:26:37.762Z,96.47
2018-07-11T15:27:30.518Z,97.24
2018-07-11T15:28:30.734Z,97.14
2018-07-11T15:29:30.918Z,97.62
2018-07-11T15:30:31.099Z,97.62
2018-07-11T15:31:31.301Z,97.81
2018-07-11T15:32:31.546Z,98.48
2018-07-11T15:33:32.311Z,98.39
2018-07-11T15:34:31.903Z,98.48
2018-07-11T15:35:32.089Z,99.44
2018-07-11T15:36:32.273Z,99.68
2018-07-11T15:37:32.444Z,99.87
2018-07-11T15:38:32.641Z,99.99
2018-07-11T15:39:32.843Z,99.99
2018-07-11T15:40:33.017Z,99.99
2018-07-11T15:41:33.202Z,99.99
2018-07-11T15:42:33.395Z,99.99
2018-07-11T15:43:33.595Z,99.99
2018-07-11T15:44:34.402Z,99.99
2018-07-11T15:45:34.817Z,99.99
2018-07-11T15:46:34.189Z,99.99
2018-07-11T15:47:34.389Z,99.99
2018-07-11T15:48:34.589Z,99.99
2018-07-11T15:49:34.786Z,99.99
2018-07-11T15:50:34.967Z,99.99
2018-07-11T15:51:35.280Z,99.99
2018-07-11T15:52:36.834Z,99.99
2018-07-11T15:53:35.472Z,99.99
2018-07-11T15:54:35.652Z,99.99
2018-07-11T15:55:35.832Z,99.99
2018-07-11T15:56:36.063Z,99.99
2018-07-11T15:57:36.238Z,99.99
2018-07-11T15:58:36.439Z,99.99
2018-07-11T15:59:36.690Z,99.99
2018-07-11T16:00:36.819Z,99.99
2018-07-11T16:01:37.013Z,99.99
2018-07-11T16:02:37.198Z,99.99
2018-07-11T16:03:37.388Z,99.99
2018-07-11T16:04:37.571Z,99.99
2018-07-11T16:05:37.815Z,99.99
2018-07-11T16:06:38.025Z,99.99
2018-07-11T16:07:38.199Z,99.99
2018-07-11T16:08:38.394Z,99.99
2018-07-11T16:09:38.585Z,99.99
2018-07-11T16:10:38.793Z,99.99
2018-07-11T16:11:38.951Z,99.99
2018-07-11T16:12:39.141Z,99.99
2018-07-11T16:15:23.950Z,99.99
2018-07-11T16:16:22.248Z,99.99
2018-07-11T16:17:22.436Z,99.99
2018-07-11T16:18:22.672Z,99.99
2018-07-11T16:19:22.805Z,99.99
2018-07-11T16:20:22.983Z,99.99
2018-07-11T16:21:23.165Z,99.99
2018-07-11T16:22:23.351Z,99.99
2018-07-11T16:23:23.535Z,99.99
2018-07-11T16:24:23.720Z,99.99
2018-07-11T16:25:23.908Z,99.99
2018-07-11T16:26:24.093Z,99.99
2018-07-11T16:27:24.283Z,99.99
2018-07-11T16:28:24.462Z,99.99
2018-07-11T16:29:24.660Z,99.99
2018-07-11T16:30:24.842Z,99.99
2018-07-11T16:31:25.035Z,99.99
2018-07-11T16:32:25.209Z,99.99
2018-07-11T16:33:25.421Z,99.99
2018-07-11T16:34:25.590Z,99.99
2018-07-11T16:35:25.786Z,99.99
2018-07-11T16:36:25.978Z,99.99
2018-07-11T16:37:26.170Z,99.99
2018-07-11T16:38:26.356Z,99.99
2018-07-11T16:39:26.530Z,99.99
2018-07-11T16:40:26.728Z,99.99
2018-07-11T16:41:26.950Z,99.99
2018-07-11T16:42:27.131Z,99.99
2018-07-11T16:43:27.309Z,99.99
2018-07-11T16:44:27.497Z,99.99
2018-07-11T16:45:27.724Z,99.99
2018-07-11T16:46:27.915Z,99.99
2018-07-11T16:47:28.096Z,99.99
2018-07-11T16:48:28.294Z,99.99
2018-07-11T16:49:28.455Z,99.99
2018-07-11T16:50:28.639Z,99.99
2018-07-11T16:51:28.842Z,99.99
2018-07-11T16:52:29.059Z,99.99
2018-07-11T16:53:29.227Z,99.99
2018-07-11T16:54:29.409Z,99.99
2018-07-11T16:55:29.610Z,99.99
2018-07-11T16:56:29.777Z,99.99
2018-07-11T16:57:29.968Z,99.99
2018-07-11T16:58:30.169Z,99.99
2018-07-11T16:59:30.353Z,99.99
2018-07-11T17:00:30.565Z,99.99
2018-07-11T17:01:30.723Z,99.99
2018-07-11T17:02:30.898Z,99.99
2018-07-11T17:03:31.074Z,99.99
2018-07-11T17:04:31.268Z,99.99
2018-07-11T17:05:31.456Z,99.99
2018-07-11T17:06:31.643Z,99.99
2018-07-11T17:07:31.817Z,99.99
2018-07-11T17:08:32.017Z,99.99
2018-07-11T17:09:32.214Z,99.99
2018-07-11T17:10:32.415Z,99.99
2018-07-11T17:11:32.596Z,99.99
2018-07-11T17:12:32.782Z,99.99
2018-07-11T17:13:32.980Z,99.99
2018-07-11T17:14:33.154Z,99.99
2018-07-11T17:15:33.339Z,99.99
2018-07-11T17:16:33.550Z,99.99
2018-07-11T17:17:33.724Z,99.99
2018-07-11T17:18:33.978Z,99.99
2018-07-11T17:19:34.115Z,99.99
2018-07-11T17:20:34.309Z,99.99
2018-07-11T17:21:34.492Z,99.99
2018-07-11T17:22:34.697Z,99.99
2018-07-11T17:23:34.877Z,99.99
2018-07-11T17:24:35.075Z,99.99
2018-07-11T17:25:35.272Z,99.99
2018-07-11T17:26:35.455Z,99.99
2018-07-11T17:27:35.667Z,99.99
2018-07-11T17:28:35.847Z,99.99
2018-07-11T17:29:36.029Z,98.52
2018-07-11T17:30:36.222Z,95.17
2018-07-11T17:31:36.404Z,91.05
2018-07-11T17:32:36.584Z,90.67
2018-07-11T17:33:36.759Z,89.32
2018-07-11T17:34:36.960Z,86.93
2018-07-11T17:35:37.146Z,84.68
2018-07-11T17:36:37.331Z,80.85
2018-07-11T17:37:37.504Z,79.22
2018-07-11T17:38:37.677Z,79.13
2018-07-11T17:39:37.878Z,77.50
2018-07-11T17:40:38.063Z,76.64
2018-07-11T17:41:38.253Z,75.01
2018-07-11T17:42:38.438Z,73.38
2018-07-11T17:43:38.707Z,72.03
2018-07-11T17:44:38.862Z,71.08
2018-07-11T17:45:39.062Z,71.08
2018-07-11T17:46:39.231Z,69.64
2018-07-11T17:47:39.419Z,68.97
2018-07-11T17:48:39.588Z,68.87
2018-07-11T17:49:39.783Z,67.82
2018-07-11T17:50:39.969Z,68.49
2018-07-11T17:51:40.158Z,68.01
2018-07-11T17:52:40.345Z,66.29
2018-07-11T17:53:40.523Z,66.00
2018-07-11T17:54:40.724Z,65.91
2018-07-11T17:55:40.913Z,66.58
2018-07-11T17:56:41.099Z,66.86
2018-07-11T17:57:41.286Z,66.86
2018-07-11T17:58:41.496Z,66.38
2018-07-11T17:59:41.767Z,65.33
2018-07-11T18:00:41.872Z,63.99
2018-07-11T18:01:42.091Z,65.62
2018-07-11T18:02:42.263Z,65.52
2018-07-11T18:03:42.443Z,65.81
2018-07-11T18:04:42.628Z,65.14
2018-07-11T18:05:42.808Z,65.42
2018-07-11T18:06:43.005Z,65.81
2018-07-11T18:07:43.185Z,65.62
2018-07-11T18:08:43.375Z,65.81
2018-07-11T18:09:43.552Z,65.71
2018-07-11T18:10:43.738Z,64.56
2018-07-11T18:11:43.926Z,63.60
2018-07-11T18:12:44.115Z,63.89
2018-07-11T18:13:44.315Z,63.42
2018-07-11T18:14:44.480Z,63.22
2018-07-11T18:15:44.663Z,63.80
2018-07-11T18:16:44.857Z,62.93
2018-07-11T18:17:45.041Z,64.37
2018-07-11T18:18:45.255Z,63.99
2018-07-11T18:19:45.438Z,63.99
2018-07-11T18:20:45.630Z,63.89
2018-07-11T18:21:45.800Z,64.09
2018-07-11T18:22:45.981Z,63.42
2018-07-11T18:23:46.165Z,63.03
2018-07-11T18:24:46.372Z,63.13
2018-07-11T18:25:46.562Z,63.51
2018-07-11T18:26:46.754Z,63.99
2018-07-11T18:27:46.945Z,64.47
2018-07-11T18:28:47.151Z,64.47
2018-07-11T18:29:47.360Z,63.89
2018-07-11T18:30:47.546Z,66.00
2018-07-11T18:31:47.762Z,65.81
2018-07-11T18:32:47.950Z,64.85
2018-07-11T18:33:49.113Z,64.47
2018-07-11T18:34:48.375Z,65.05
2018-07-11T18:35:48.536Z,66.86
2018-07-11T18:36:48.722Z,66.19
2018-07-11T18:37:48.900Z,65.81
2018-07-11T18:38:49.083Z,65.05
2018-07-11T18:39:49.269Z,64.76
2018-07-11T18:40:49.495Z,65.81
2018-07-11T18:41:49.647Z,66.86
2018-07-11T18:42:49.831Z,67.82
2018-07-11T18:43:50.018Z,67.05
2018-07-11T18:44:50.189Z,68.49
2018-07-11T18:45:50.387Z,67.44
2018-07-11T18:46:50.568Z,68.11
2018-07-11T18:47:50.749Z,68.01
2018-07-11T18:48:50.933Z,68.68
2018-07-11T18:49:51.119Z,68.30
2018-07-11T18:50:51.288Z,69.64
2018-07-11T18:51:51.490Z,69.54
2018-07-11T18:52:51.686Z,68.78
2018-07-11T18:55:34.592Z,68.59
2018-07-11T18:56:34.769Z,67.15
2018-07-11T18:57:34.955Z,67.44
2018-07-11T18:58:35.142Z,66.96
2018-07-11T18:59:35.326Z,68.59
2018-07-11T19:00:35.508Z,68.01
2018-07-11T19:01:35.705Z,68.49
2018-07-11T19:02:35.888Z,68.68
2018-07-11T19:03:36.059Z,68.30
2018-07-11T19:04:36.247Z,70.31
2018-07-11T19:05:36.522Z,69.83
2018-07-11T19:06:36.768Z,70.03
2018-07-11T19:07:36.785Z,70.31
2018-07-11T19:08:36.971Z,70.03
2018-07-11T19:09:37.152Z,69.54
2018-07-11T19:10:37.340Z,69.45
2018-07-11T19:11:37.514Z,68.78
2018-07-11T19:12:37.700Z,68.11
2018-07-11T19:13:37.875Z,67.63
2018-07-11T19:14:38.054Z,66.58
2018-07-11T19:15:38.233Z,67.91
2018-07-11T19:16:38.418Z,67.54
2018-07-11T19:17:38.603Z,66.67
2018-07-11T19:18:38.790Z,65.62
2018-07-11T19:19:38.968Z,66.96
2018-07-11T19:20:39.159Z,66.29
2018-07-11T19:21:39.354Z,67.91
2018-07-11T19:22:39.519Z,67.34
2018-07-11T19:23:39.719Z,68.01
2018-07-11T19:24:39.890Z,67.34
2018-07-11T19:25:40.072Z,66.86
2018-07-11T19:26:40.275Z,66.86
2018-07-11T19:27:40.426Z,66.58
2018-07-11T19:30:34.498Z,67.91
2018-07-11T19:31:34.676Z,67.72
2018-07-11T19:32:34.866Z,67.34
2018-07-11T19:33:35.047Z,66.67
2018-07-11T19:34:35.226Z,66.58
2018-07-11T19:35:35.412Z,66.86
2018-07-11T19:36:35.721Z,68.40
2018-07-11T19:37:35.795Z,67.72
2018-07-11T19:38:35.968Z,67.15
2018-07-11T19:39:36.153Z,68.49
2018-07-11T19:40:36.335Z,67.72
2018-07-11T19:41:36.533Z,66.48
2018-07-11T19:42:36.717Z,67.72
2018-07-11T19:43:36.911Z,66.58
2018-07-11T19:44:37.092Z,68.68
2018-07-11T19:45:37.279Z,68.59
2018-07-11T19:46:37.460Z,68.49
2018-07-11T19:47:37.646Z,68.21
2018-07-11T19:48:37.831Z,68.97
2018-07-11T19:49:38.017Z,68.97
2018-07-11T19:50:38.206Z,68.30
2018-07-11T19:51:38.389Z,69.26
2018-07-11T19:52:38.575Z,68.11
2018-07-11T19:53:38.770Z,68.68
2018-07-11T19:54:38.955Z,68.59
2018-07-11T19:55:39.140Z,69.35
2018-07-11T19:56:39.322Z,68.40
2018-07-11T19:57:39.500Z,68.21
2018-07-11T19:58:39.669Z,67.82
2018-07-11T19:59:39.841Z,68.49
2018-07-11T20:00:40.060Z,68.49
2018-07-11T20:01:40.266Z,68.49
2018-07-11T20:02:40.476Z,68.59
2018-07-11T20:03:40.666Z,68.21
2018-07-11T20:04:40.850Z,68.68
2018-07-11T20:05:41.023Z,69.17
2018-07-11T20:06:41.221Z,68.49
2018-07-11T20:07:41.393Z,68.59
2018-07-11T20:08:41.617Z,67.63
2018-07-11T20:09:41.772Z,67.05
2018-07-11T20:10:41.956Z,66.86
2018-07-11T20:11:42.141Z,66.54
2018-07-11T20:12:42.346Z,66.58
2018-07-11T20:13:42.546Z,66.83
2018-07-11T20:14:42.720Z,66.64
2018-07-11T20:15:42.925Z,66.64
2018-07-11T20:18:25.909Z,66.16
2018-07-11T20:19:26.011Z,66.35
2018-07-11T20:20:26.729Z,66.35
2018-07-11T20:21:26.377Z,66.86
2018-07-11T20:22:26.560Z,66.86
2018-07-11T20:23:26.754Z,68.11
2018-07-11T20:24:26.939Z,67.50
2018-07-11T20:25:27.122Z,67.05
2018-07-11T20:26:27.294Z,68.17
2018-07-11T20:27:27.497Z,67.15
2018-07-11T20:28:27.668Z,67.05
2018-07-11T20:29:27.868Z,67.25
2018-07-11T20:30:28.103Z,67.63
2018-07-11T20:31:28.258Z,67.11
2018-07-11T20:32:28.483Z,66.74
2018-07-11T20:33:28.656Z,67.50
2018-07-11T20:34:28.835Z,67.50
2018-07-11T20:35:29.044Z,66.83
2018-07-11T20:36:29.225Z,66.93
2018-07-11T20:37:29.410Z,66.25
2018-07-11T20:38:29.617Z,66.25
2018-07-11T20:39:29.795Z,65.49
2018-07-11T20:40:29.982Z,65.30
2018-07-11T20:41:30.170Z,64.53
2018-07-11T20:42:30.371Z,64.34
2018-07-11T20:43:30.556Z,64.25
2018-07-11T20:44:30.756Z,64.25
2018-07-11T20:45:30.937Z,63.67
2018-07-11T20:46:31.195Z,63.19
2018-07-11T20:47:31.317Z,62.71
2018-07-11T20:48:31.524Z,63.19
2018-07-11T20:49:31.706Z,62.52
2018-07-11T20:50:31.885Z,62.62
2018-07-11T20:51:32.067Z,62.71
2018-07-11T20:52:32.247Z,62.04
2018-07-11T20:53:32.424Z,60.99
2018-07-11T20:54:32.630Z,60.80
2018-07-11T20:55:32.798Z,58.88
2018-07-11T20:56:33.022Z,59.65
2018-07-11T20:57:33.195Z,59.17
2018-07-11T20:58:33.376Z,59.27
2018-07-11T20:59:33.565Z,58.69
2018-07-11T21:00:33.776Z,57.54
2018-07-11T21:01:33.972Z,56.97
2018-07-11T21:02:34.148Z,56.39
2018-07-11T21:03:34.343Z,56.59
2018-07-11T21:04:34.517Z,55.53
2018-07-11T21:05:34.743Z,55.73
2018-07-11T21:06:34.944Z,55.82
2018-07-11T21:07:35.161Z,55.15
2018-07-11T21:08:35.359Z,54.48
2018-07-11T21:09:35.560Z,54.38
2018-07-11T21:10:35.787Z,54.00
2018-07-11T21:11:36.006Z,52.73
2018-07-11T21:14:19.497Z,51.58
2018-07-11T21:15:19.140Z,51.29
2018-07-11T21:16:19.436Z,51.10
2018-07-11T21:19:02.076Z,49.95
2018-07-11T21:20:02.274Z,49.76
2018-07-11T21:21:02.527Z,49.38
2018-07-11T21:22:02.606Z,49.19
2018-07-11T21:23:02.877Z,49.38
2018-07-11T21:24:03.025Z,49.76
2018-07-11T21:25:03.238Z,49.86
2018-07-11T21:26:03.445Z,49.66
2018-07-11T21:27:03.660Z,49.00
2018-07-11T21:28:03.883Z,49.19
2018-07-11T21:29:04.091Z,49.76
2018-07-11T21:30:04.274Z,48.80
2018-07-11T21:31:04.452Z,48.80
2018-07-11T21:32:04.625Z,49.86
2018-07-11T21:33:04.810Z,49.88
2018-07-11T21:34:04.984Z,49.86
2018-07-11T21:35:05.163Z,50.36
2018-07-11T21:36:05.396Z,49.95
2018-07-11T21:37:05.584Z,50.05
2018-07-11T21:38:05.769Z,49.76
2018-07-11T21:39:05.947Z,49.19
2018-07-11T21:40:06.126Z,49.00
2018-07-11T21:41:06.342Z,47.85